Time;durP1;ratioP1;P1;durP2;ratioP2;P2;SDS_P1;SDS_P2;PMS_P1;PMS_P2;Temp;Humidity;BMP_temperature;BMP_pressure;BME280_temperature;BME280_humidity;BME280_pressure;Samples;Min_cycle;Max_cycle;Signal;HPM_P1;HPM_P2
2022/12/20 00:00:54;;;;;;;40.38;19.00;;;;;;;;;;4992351;28;20484;-48
2022/12/20 00:03:21;;;;;;;36.75;17.45;;;;;;;;;;4992414;28;20403;-47
2022/12/20 00:05:49;;;;;;;42.88;18.60;;;;;;;;;;4992433;28;20121;-48
2022/12/20 00:08:16;;;;;;;38.60;18.70;;;;;;;;;;4992298;28;20434;-50
2022/12/20 00:10:45;;;;;;;41.92;18.85;;;;;;;;;;4992240;28;20400;-50
2022/12/20 00:13:13;;;;;;;34.45;15.90;;;;;;;;;;4992204;28;20434;-47
2022/12/20 00:15:40;;;;;;;42.92;18.70;;;;;;;;;;4991936;28;20053;-49
2022/12/20 00:18:08;;;;;;;44.08;18.85;;;;;;;;;;4992069;28;20035;-53
2022/12/20 00:20:35;;;;;;;39.25;17.10;;;;;;;;;;4992073;28;20117;-52
2022/12/20 00:23:03;;;;;;;37.45;17.73;;;;;;;;;;4991950;28;20111;-48
2022/12/20 00:25:30;;;;;;;39.13;17.70;;;;;;;;;;4991927;28;20034;-49
2022/12/20 00:27:58;;;;;;;39.05;17.63;;;;;;;;;;4991684;28;20053;-49
2022/12/20 00:30:25;;;;;;;35.65;16.13;;;;;;;;;;4989744;28;20042;-50
2022/12/20 00:32:53;;;;;;;38.55;15.95;;;;;;;;;;4991522;28;20054;-51
2022/12/20 00:35:20;;;;;;;37.20;16.70;;;;;;;;;;4990640;28;20099;-47
2022/12/20 00:37:47;;;;;;;39.30;17.70;;;;;;;;;;4991662;28;20042;-49
2022/12/20 00:40:15;;;;;;;38.08;17.45;;;;;;;;;;4990474;28;20050;-48
2022/12/20 00:42:42;;;;;;;37.40;17.33;;;;;;;;;;4990405;28;20042;-48
2022/12/20 00:45:10;;;;;;;36.30;17.17;;;;;;;;;;4990393;28;20042;-49
2022/12/20 00:47:38;;;;;;;37.10;17.25;;;;;;;;;;4991332;28;20038;-51
2022/12/20 00:50:06;;;;;;;40.17;18.52;;;;;;;;;;4991461;28;20042;-54
2022/12/20 00:52:33;;;;;;;40.08;18.25;;;;;;;;;;4990100;28;20038;-51
2022/12/20 00:55:00;;;;;;;39.58;17.73;;;;;;;;;;4991303;28;20083;-53
2022/12/20 00:57:28;;;;;;;39.78;18.17;;;;;;;;;;4990994;28;20047;-51
2022/12/20 00:59:55;;;;;;;38.70;17.70;;;;;;;;;;4991374;28;20054;-47
2022/12/20 01:02:23;;;;;;;37.03;17.15;;;;;;;;;;5007550;28;20092;-50
2022/12/20 01:04:51;;;;;;;36.60;17.83;;;;;;;;;;5093460;28;20519;-49
2022/12/20 01:07:19;;;;;;;37.97;17.92;;;;;;;;;;5092365;28;20093;-48
2022/12/20 01:09:46;;;;;;;39.13;17.75;;;;;;;;;;5092242;28;20098;-48
2022/12/20 01:12:14;;;;;;;34.42;15.95;;;;;;;;;;5092317;28;20055;-49
2022/12/20 01:14:41;;;;;;;38.65;17.40;;;;;;;;;;5092239;28;20521;-50
2022/12/20 01:17:09;;;;;;;39.72;18.10;;;;;;;;;;5092243;28;20048;-53
2022/12/20 01:19:37;;;;;;;39.45;18.38;;;;;;;;;;5092049;28;20401;-54
2022/12/20 01:22:04;;;;;;;39.80;16.90;;;;;;;;;;5091982;28;20097;-51
2022/12/20 01:24:32;;;;;;;39.03;17.45;;;;;;;;;;5092020;28;20055;-50
2022/12/20 01:26:59;;;;;;;39.15;16.45;;;;;;;;;;5091971;28;20040;-50
2022/12/20 01:29:27;;;;;;;39.10;17.48;;;;;;;;;;5091754;28;20097;-50
2022/12/20 01:31:54;;;;;;;40.60;18.48;;;;;;;;;;5091919;28;20066;-47
2022/12/20 01:34:22;;;;;;;41.22;17.98;;;;;;;;;;5091866;28;20067;-49
2022/12/20 01:36:50;;;;;;;39.78;16.83;;;;;;;;;;5093194;28;20059;-50
2022/12/20 01:39:18;;;;;;;35.30;17.33;;;;;;;;;;5091827;28;20409;-51
2022/12/20 01:41:46;;;;;;;41.67;17.75;;;;;;;;;;5092716;28;20044;-52
2022/12/20 01:44:16;;;;;;;38.00;17.25;;;;;;;;;;5091822;28;20050;-53
2022/12/20 01:46:45;;;;;;;41.10;18.58;;;;;;;;;;5091794;28;20079;-53
2022/12/20 01:49:23;;;;;;;41.58;19.27;;;;;;;;;;5091870;28;20101;-52
2022/12/20 01:52:04;;;;;;;43.95;18.77;;;;;;;;;;5091628;28;20100;-52
2022/12/20 01:54:33;;;;;;;40.42;18.48;;;;;;;;;;5092997;28;20040;-53
2022/12/20 01:57:03;;;;;;;38.63;16.60;;;;;;;;;;5091962;28;20424;-54
2022/12/20 01:59:35;;;;;;;40.78;17.95;;;;;;;;;;5074872;28;20044;-53
2022/12/20 02:02:03;;;;;;;40.78;18.85;;;;;;;;;;5091370;28;20072;-51
2022/12/20 02:04:31;;;;;;;38.60;18.85;;;;;;;;;;5092770;28;20044;-53
2022/12/20 02:06:59;;;;;;;41.10;19.42;;;;;;;;;;5091397;28;20036;-54
2022/12/20 02:09:27;;;;;;;40.90;18.35;;;;;;;;;;5091525;28;20600;-53
2022/12/20 02:12:07;;;;;;;41.17;17.90;;;;;;;;;;5091406;28;20591;-54
2022/12/20 02:14:43;;;;;;;36.60;16.60;;;;;;;;;;5092715;28;20094;-47
2022/12/20 02:17:30;;;;;;;36.08;16.88;;;;;;;;;;5091268;28;20044;-49
2022/12/20 02:20:00;;;;;;;38.42;17.55;;;;;;;;;;5091055;28;20089;-50
2022/12/20 02:22:37;;;;;;;38.75;16.63;;;;;;;;;;5092511;28;20097;-52
2022/12/20 02:25:14;;;;;;;37.97;17.77;;;;;;;;;;5091263;28;20075;-50
2022/12/20 02:28:11;;;;;;;37.60;17.75;;;;;;;;;;5091154;28;20044;-49
2022/12/20 02:30:41;;;;;;;40.45;18.23;;;;;;;;;;5004662;28;20496;-52
2022/12/20 02:33:10;;;;;;;36.97;18.10;;;;;;;;;;5092435;28;20497;-47
2022/12/20 02:35:39;;;;;;;43.70;18.95;;;;;;;;;;5092387;28;20044;-47
2022/12/20 02:38:28;;;;;;;38.40;18.05;;;;;;;;;;5091190;28;20138;-48
2022/12/20 02:40:58;;;;;;;41.97;18.33;;;;;;;;;;5091245;28;20044;-48
2022/12/20 02:46:15;;;;;;;35.17;16.23;;;;;;;;;;5091071;28;20072;-50
2022/12/20 02:48:43;;;;;;;44.65;18.27;;;;;;;;;;5090999;28;20055;-54
2022/12/20 02:51:10;;;;;;;40.90;18.38;;;;;;;;;;5091041;28;20040;-53
2022/12/20 02:53:38;;;;;;;43.97;19.00;;;;;;;;;;5074179;28;20075;-47
2022/12/20 02:56:20;;;;;;;39.78;17.00;;;;;;;;;;5096503;28;20406;-48
2022/12/20 02:58:51;;;;;;;42.50;18.80;;;;;;;;;;5094977;28;20138;-52
2022/12/20 03:01:27;;;;;;;41.10;18.55;;;;;;;;;;5094772;28;20139;-49
2022/12/20 03:03:56;;;;;;;45.17;19.65;;;;;;;;;;5096438;28;20048;-51
2022/12/20 03:06:24;;;;;;;41.80;20.00;;;;;;;;;;5094781;28;20040;-51
2022/12/20 03:08:51;;;;;;;45.78;18.52;;;;;;;;;;5096046;28;20119;-47
2022/12/20 03:11:22;;;;;;;42.13;18.48;;;;;;;;;;5094716;28;20051;-47
2022/12/20 03:13:49;;;;;;;39.13;18.02;;;;;;;;;;5095946;28;20119;-47
2022/12/20 03:16:17;;;;;;;39.78;18.42;;;;;;;;;;5094365;28;20040;-51
2022/12/20 03:18:45;;;;;;;42.15;19.13;;;;;;;;;;5094441;28;20051;-53
2022/12/20 03:21:12;;;;;;;44.67;20.13;;;;;;;;;;5095870;28;20043;-53
2022/12/20 03:23:40;;;;;;;45.60;19.63;;;;;;;;;;5094334;28;20036;-53
2022/12/20 03:26:07;;;;;;;42.83;19.90;;;;;;;;;;5094470;28;20044;-53
2022/12/20 03:28:42;;;;;;;41.45;19.35;;;;;;;;;;5078661;28;20066;-53
2022/12/20 03:31:14;;;;;;;43.47;19.30;;;;;;;;;;5094310;28;20401;-52
2022/12/20 03:33:47;;;;;;;39.60;18.45;;;;;;;;;;5094274;28;20054;-53
2022/12/20 03:36:15;;;;;;;44.22;19.63;;;;;;;;;;5077546;28;20051;-52
2022/12/20 03:38:43;;;;;;;46.45;20.15;;;;;;;;;;5094104;28;20040;-48
2022/12/20 03:41:10;;;;;;;41.00;18.67;;;;;;;;;;5093786;28;20062;-52
2022/12/20 03:43:38;;;;;;;37.83;18.88;;;;;;;;;;5094028;28;20044;-52
2022/12/20 03:46:06;;;;;;;40.47;18.10;;;;;;;;;;5094006;28;20044;-52
2022/12/20 03:48:37;;;;;;;41.67;18.25;;;;;;;;;;5095545;28;20067;-53
2022/12/20 03:51:04;;;;;;;40.75;18.13;;;;;;;;;;5093920;28;20070;-51
2022/12/20 03:53:32;;;;;;;38.45;18.13;;;;;;;;;;5093962;28;20055;-51
2022/12/20 03:56:00;;;;;;;38.20;17.50;;;;;;;;;;5093771;28;20044;-53
2022/12/20 03:58:27;;;;;;;41.90;18.60;;;;;;;;;;5093756;28;20494;-52
2022/12/20 04:00:56;;;;;;;37.72;18.25;;;;;;;;;;5093581;28;20047;-48
2022/12/20 04:03:37;;;;;;;40.17;18.60;;;;;;;;;;5093689;28;20047;-53
2022/12/20 04:06:05;;;;;;;42.53;18.75;;;;;;;;;;5093351;28;20043;-47
2022/12/20 04:08:32;;;;;;;44.03;18.20;;;;;;;;;;5093596;28;20044;-53
2022/12/20 04:11:15;;;;;;;39.60;19.10;;;;;;;;;;5093592;28;20063;-53
2022/12/20 04:13:55;;;;;;;38.67;18.25;;;;;;;;;;5093665;28;20047;-50
2022/12/20 04:16:24;;;;;;;38.50;18.45;;;;;;;;;;5094827;28;20435;-53
2022/12/20 04:18:53;;;;;;;43.50;18.63;;;;;;;;;;5093416;28;20039;-51
2022/12/20 04:21:23;;;;;;;41.67;18.67;;;;;;;;;;5076760;28;20067;-52
2022/12/20 04:23:52;;;;;;;38.88;18.83;;;;;;;;;;5076757;28;20105;-50
2022/12/20 04:26:22;;;;;;;42.35;19.80;;;;;;;;;;5077048;28;20036;-50
2022/12/20 04:28:49;;;;;;;40.88;18.35;;;;;;;;;;5093010;28;20048;-52
2022/12/20 04:31:18;;;;;;;39.92;19.45;;;;;;;;;;5006880;28;20114;-53
2022/12/20 04:33:52;;;;;;;45.22;20.48;;;;;;;;;;4987966;28;20195;-47
2022/12/20 04:36:20;;;;;;;36.55;18.40;;;;;;;;;;4990447;28;20038;-58
2022/12/20 04:38:50;;;;;;;40.85;17.98;;;;;;;;;;4990411;28;20054;-58
2022/12/20 04:41:21;;;;;;;40.13;19.52;;;;;;;;;;4990459;28;20045;-58
2022/12/20 04:43:56;;;;;;;44.05;18.92;;;;;;;;;;4990427;28;20053;-58
2022/12/20 04:46:29;;;;;;;41.13;18.35;;;;;;;;;;4990294;28;20508;-58
2022/12/20 04:48:59;;;;;;;41.08;19.15;;;;;;;;;;4989821;28;20081;-58
2022/12/20 04:51:29;;;;;;;42.38;18.15;;;;;;;;;;4990163;28;20043;-58
2022/12/20 04:53:57;;;;;;;42.25;17.98;;;;;;;;;;4990087;28;20073;-58
2022/12/20 04:56:38;;;;;;;38.60;19.27;;;;;;;;;;4990224;28;20561;-58
2022/12/20 04:59:11;;;;;;;37.67;17.42;;;;;;;;;;4990217;28;20129;-58
2022/12/20 05:01:41;;;;;;;44.60;19.42;;;;;;;;;;4990049;28;20038;-59
2022/12/20 05:04:10;;;;;;;37.20;17.80;;;;;;;;;;4990067;28;20046;-59
2022/12/20 05:06:38;;;;;;;47.28;20.33;;;;;;;;;;4990082;28;20095;-59
2022/12/20 05:09:06;;;;;;;40.88;18.50;;;;;;;;;;4990011;28;20075;-59
2022/12/20 05:11:34;;;;;;;40.40;18.45;;;;;;;;;;4989906;28;20042;-59
2022/12/20 05:14:05;;;;;;;43.40;19.67;;;;;;;;;;4989897;28;20088;-59
2022/12/20 05:16:32;;;;;;;39.42;18.98;;;;;;;;;;4990719;28;20038;-59
2022/12/20 05:19:02;;;;;;;44.40;19.85;;;;;;;;;;4989800;28;20069;-59
2022/12/20 05:27:26;;;;;;;49.13;19.73;;;;;;;;;;4999479;28;20065;-58
2022/12/20 05:29:54;;;;;;;45.15;19.98;;;;;;;;;;4987070;28;20055;-58
2022/12/20 05:32:21;;;;;;;48.40;20.90;;;;;;;;;;4994827;28;20038;-59
2022/12/20 05:34:50;;;;;;;46.85;20.80;;;;;;;;;;5006172;28;20563;-58
2022/12/20 05:37:19;;;;;;;43.33;20.25;;;;;;;;;;5009107;28;20048;-58
2022/12/20 05:39:47;;;;;;;46.60;20.48;;;;;;;;;;5008771;28;20102;-58
2022/12/20 05:42:19;;;;;;;38.50;18.17;;;;;;;;;;5009151;28;20038;-58
2022/12/20 05:44:50;;;;;;;46.53;22.73;;;;;;;;;;5008827;28;20046;-58
2022/12/20 05:47:19;;;;;;;46.63;19.45;;;;;;;;;;5009007;28;20467;-58
2022/12/20 05:49:52;;;;;;;55.67;22.90;;;;;;;;;;5008973;28;20046;-58
2022/12/20 05:52:19;;;;;;;53.20;24.27;;;;;;;;;;4992211;28;20409;-58
2022/12/20 05:54:47;;;;;;;52.33;23.17;;;;;;;;;;4989306;28;20407;-58
2022/12/20 05:57:17;;;;;;;53.15;23.67;;;;;;;;;;4989366;28;20062;-57
2022/12/20 05:59:45;;;;;;;47.40;21.35;;;;;;;;;;4989124;28;20508;-58
2022/12/20 06:02:18;;;;;;;54.28;21.80;;;;;;;;;;4989193;28;20133;-58
2022/12/20 06:04:49;;;;;;;46.70;21.15;;;;;;;;;;4989099;28;20129;-58
2022/12/20 06:07:23;;;;;;;47.22;21.30;;;;;;;;;;4989150;28;20042;-58
2022/12/20 06:09:55;;;;;;;51.00;22.45;;;;;;;;;;4989203;28;20053;-58
2022/12/20 06:12:31;;;;;;;58.72;26.02;;;;;;;;;;4989126;28;20050;-58
2022/12/20 06:14:58;;;;;;;55.47;22.80;;;;;;;;;;4989070;28;20099;-58
2022/12/20 06:17:26;;;;;;;51.40;22.17;;;;;;;;;;4990484;28;20065;-59
2022/12/20 06:19:54;;;;;;;50.13;20.35;;;;;;;;;;4989133;28;20315;-58
2022/12/20 06:22:21;;;;;;;49.00;21.52;;;;;;;;;;4989097;28;20129;-58
2022/12/20 06:24:54;;;;;;;50.03;21.80;;;;;;;;;;4989019;28;20046;-58
2022/12/20 06:27:29;;;;;;;;;;;;;;;;;;4989491;28;20047;-58
2022/12/20 06:30:16;;;;;;;48.75;22.83;;;;;;;;;;4992641;28;19929;-58
2022/12/20 06:33:01;;;;;;;51.13;21.80;;;;;;;;;;4993798;28;20043;-58
2022/12/20 06:35:29;;;;;;;44.85;20.55;;;;;;;;;;4992580;28;20050;-58
2022/12/20 06:37:56;;;;;;;46.35;21.00;;;;;;;;;;4993738;28;20045;-58
2022/12/20 06:40:24;;;;;;;44.92;20.20;;;;;;;;;;4992466;28;20095;-58
2022/12/20 06:42:52;;;;;;;45.63;20.13;;;;;;;;;;4993957;28;20049;-58
2022/12/20 06:45:22;;;;;;;55.47;22.83;;;;;;;;;;4992252;28;20050;-58
2022/12/20 06:47:51;;;;;;;56.05;24.67;;;;;;;;;;4992271;28;20752;-58
2022/12/20 06:50:20;;;;;;;53.53;24.33;;;;;;;;;;4992218;28;20522;-58
2022/12/20 06:52:48;;;;;;;52.50;25.00;;;;;;;;;;4992200;28;20050;-58
2022/12/20 06:55:17;;;;;;;53.83;22.92;;;;;;;;;;4992523;28;20038;-58
2022/12/20 06:57:45;;;;;;;71.57;32.10;;;;;;;;;;4992012;28;20104;-58
2022/12/20 07:00:14;;;;;;;52.72;23.98;;;;;;;;;;4992407;28;20054;-58
2022/12/20 07:02:42;;;;;;;52.03;24.00;;;;;;;;;;4993379;28;20046;-58
2022/12/20 07:05:09;;;;;;;50.75;22.90;;;;;;;;;;4993119;28;20133;-58
2022/12/20 07:07:37;;;;;;;47.78;22.92;;;;;;;;;;4993312;28;20491;-58
2022/12/20 07:10:11;;;;;;;48.25;22.20;;;;;;;;;;4991749;28;20137;-58
2022/12/20 07:12:39;;;;;;;46.70;21.70;;;;;;;;;;4993189;28;20056;-58
2022/12/20 07:15:14;;;;;;;50.83;22.48;;;;;;;;;;4993213;28;20070;-58
2022/12/20 07:17:41;;;;;;;52.38;25.83;;;;;;;;;;4993146;28;20425;-58
2022/12/20 07:20:11;;;;;;;56.25;23.88;;;;;;;;;;4993079;28;20043;-58
2022/12/20 07:22:41;;;;;;;50.65;23.23;;;;;;;;;;4993008;28;20491;-58
2022/12/20 07:25:10;;;;;;;48.72;23.38;;;;;;;;;;4992944;28;20503;-58
2022/12/20 07:27:38;;;;;;;48.72;21.70;;;;;;;;;;4992836;28;20043;-58
2022/12/20 07:30:05;;;;;;;48.63;22.35;;;;;;;;;;4992834;28;20080;-58
2022/12/20 07:32:33;;;;;;;45.38;21.52;;;;;;;;;;4992752;28;20051;-59
2022/12/20 07:35:00;;;;;;;43.22;22.33;;;;;;;;;;4992768;28;20061;-58
2022/12/20 07:37:28;;;;;;;48.95;22.60;;;;;;;;;;4992796;28;20506;-58
2022/12/20 07:39:56;;;;;;;49.17;21.30;;;;;;;;;;4991898;28;20043;-58
2022/12/20 07:42:24;;;;;;;48.38;20.60;;;;;;;;;;4992944;28;20095;-58
2022/12/20 07:45:00;;;;;;;46.17;21.35;;;;;;;;;;4991153;28;20058;-59
2022/12/20 07:47:28;;;;;;;46.53;22.38;;;;;;;;;;4992474;28;20042;-59
2022/12/20 07:49:56;;;;;;;49.20;22.65;;;;;;;;;;4992343;28;20117;-58
2022/12/20 07:52:24;;;;;;;50.17;22.25;;;;;;;;;;4992820;28;20133;-58
2022/12/20 07:54:53;;;;;;;49.25;23.00;;;;;;;;;;4992411;28;20050;-59
2022/12/20 07:57:25;;;;;;;52.97;23.73;;;;;;;;;;4992619;28;20074;-58
2022/12/20 07:59:54;;;;;;;49.22;22.50;;;;;;;;;;4992316;28;20054;-58
2022/12/20 08:02:31;;;;;;;44.88;20.80;;;;;;;;;;4992561;28;20038;-58
2022/12/20 08:04:59;;;;;;;46.08;22.83;;;;;;;;;;4992251;28;20056;-58
2022/12/20 08:07:27;;;;;;;50.50;24.20;;;;;;;;;;4992123;28;20088;-58
2022/12/20 08:09:55;;;;;;;53.38;24.45;;;;;;;;;;4992112;28;20125;-59
2022/12/20 08:12:23;;;;;;;55.70;25.45;;;;;;;;;;4992238;28;20069;-59
2022/12/20 08:14:54;;;;;;;49.45;23.38;;;;;;;;;;4992421;28;20042;-59
2022/12/20 08:17:22;;;;;;;51.05;24.65;;;;;;;;;;4991965;28;20050;-59
2022/12/20 08:19:50;;;;;;;57.60;24.52;;;;;;;;;;4991996;28;20446;-60
2022/12/20 08:22:18;;;;;;;45.85;21.23;;;;;;;;;;4992430;28;20042;-60
2022/12/20 08:24:46;;;;;;;56.15;24.23;;;;;;;;;;4990742;28;20039;-59
2022/12/20 08:27:14;;;;;;;49.42;23.38;;;;;;;;;;4991942;28;20049;-59
2022/12/20 08:29:41;;;;;;;47.33;23.52;;;;;;;;;;4991784;28;20050;-59
2022/12/20 08:32:09;;;;;;;50.70;22.95;;;;;;;;;;4991884;28;20107;-59
2022/12/20 08:34:37;;;;;;;52.08;23.35;;;;;;;;;;4991935;28;20046;-59
2022/12/20 08:37:04;;;;;;;51.63;24.45;;;;;;;;;;4991888;28;20058;-59
2022/12/20 08:39:40;;;;;;;53.35;24.05;;;;;;;;;;4991827;28;20126;-59
2022/12/20 08:42:08;;;;;;;50.95;25.15;;;;;;;;;;4991916;28;20107;-59
2022/12/20 08:44:35;;;;;;;49.38;22.65;;;;;;;;;;4992149;28;20437;-59
2022/12/20 08:47:03;;;;;;;50.42;24.48;;;;;;;;;;4991871;28;20067;-59
2022/12/20 08:49:30;;;;;;;49.45;22.98;;;;;;;;;;4991818;28;20042;-59
2022/12/20 08:51:58;;;;;;;54.83;23.90;;;;;;;;;;4990806;28;20038;-59
2022/12/20 08:54:25;;;;;;;47.75;22.75;;;;;;;;;;4990301;28;20117;-60
2022/12/20 08:56:53;;;;;;;74.15;25.98;;;;;;;;;;4991809;28;20039;-60
2022/12/20 08:59:20;;;;;;;53.42;23.50;;;;;;;;;;4991799;28;20074;-60
2022/12/20 09:01:49;;;;;;;47.38;24.02;;;;;;;;;;4991518;28;20319;-59
2022/12/20 09:04:17;;;;;;;54.95;25.80;;;;;;;;;;4990081;28;20047;-59
2022/12/20 09:06:44;;;;;;;56.28;25.30;;;;;;;;;;4991524;28;20042;-60
2022/12/20 09:09:12;;;;;;;57.58;25.70;;;;;;;;;;4990177;28;20038;-60
2022/12/20 09:11:39;;;;;;;56.20;25.50;;;;;;;;;;4991437;28;20506;-60
2022/12/20 09:14:07;;;;;;;59.80;26.23;;;;;;;;;;4991568;28;20050;-59
2022/12/20 09:16:35;;;;;;;63.38;27.67;;;;;;;;;;4991130;28;20034;-59
2022/12/20 09:19:03;;;;;;;55.47;25.10;;;;;;;;;;4991217;28;20043;-59
2022/12/20 09:21:32;;;;;;;53.13;24.02;;;;;;;;;;4991272;28;20537;-60
2022/12/20 09:24:00;;;;;;;55.65;24.60;;;;;;;;;;4990996;28;20073;-60
2022/12/20 09:26:28;;;;;;;54.53;24.75;;;;;;;;;;4991021;28;20133;-60
2022/12/20 09:28:55;;;;;;;60.38;25.90;;;;;;;;;;4991052;28;20504;-59
2022/12/20 09:31:23;;;;;;;51.33;24.52;;;;;;;;;;4990972;28;20046;-59
2022/12/20 09:33:55;;;;;;;51.80;23.88;;;;;;;;;;4990885;28;20046;-60
2022/12/20 09:36:23;;;;;;;67.07;30.27;;;;;;;;;;4990962;28;20104;-60
2022/12/20 09:38:51;;;;;;;53.00;24.55;;;;;;;;;;4990863;28;20083;-59
2022/12/20 09:41:38;;;;;;;46.05;22.88;;;;;;;;;;4990897;28;20046;-59
2022/12/20 09:44:15;;;;;;;45.25;21.80;;;;;;;;;;4990853;28;20546;-59
2022/12/20 09:46:43;;;;;;;67.22;29.45;;;;;;;;;;4990889;28;20390;-59
2022/12/20 09:49:15;;;;;;;59.75;27.30;;;;;;;;;;4990762;28;20396;-59
2022/12/20 09:51:46;;;;;;;55.35;24.88;;;;;;;;;;4990686;28;20053;-59
2022/12/20 09:54:21;;;;;;;49.47;23.90;;;;;;;;;;4990675;28;20037;-59
2022/12/20 09:57:04;;;;;;;49.58;23.75;;;;;;;;;;4990659;28;20047;-59
2022/12/20 09:59:34;;;;;;;49.15;23.70;;;;;;;;;;4990913;28;20042;-60
2022/12/20 10:02:11;;;;;;;50.90;23.63;;;;;;;;;;4990699;28;20038;-59
2022/12/20 10:04:59;;;;;;;44.38;21.80;;;;;;;;;;4990994;28;20038;-59
2022/12/20 10:07:26;;;;;;;47.42;22.23;;;;;;;;;;4990565;28;20039;-59
2022/12/20 10:10:00;;;;;;;48.75;23.95;;;;;;;;;;4990608;28;20424;-59
2022/12/20 10:12:37;;;;;;;49.40;22.17;;;;;;;;;;4990558;28;20403;-59
2022/12/20 10:15:07;;;;;;;46.95;23.52;;;;;;;;;;4990244;28;20046;-59
2022/12/20 10:17:38;;;;;;;51.80;23.30;;;;;;;;;;4990601;28;20046;-59
2022/12/20 10:20:24;;;;;;;54.25;24.40;;;;;;;;;;4990390;28;20049;-59
2022/12/20 10:23:04;;;;;;;49.90;22.55;;;;;;;;;;4990292;28;20034;-59
2022/12/20 10:25:32;;;;;;;46.00;21.38;;;;;;;;;;4990077;28;20038;-59
2022/12/20 10:28:09;;;;;;;46.00;22.17;;;;;;;;;;4990047;28;20035;-59
2022/12/20 10:30:50;;;;;;;46.47;22.42;;;;;;;;;;5069934;28;20388;-59
2022/12/20 10:33:19;;;;;;;43.45;22.05;;;;;;;;;;5069786;28;20037;-59
2022/12/20 10:35:49;;;;;;;45.83;21.92;;;;;;;;;;5069723;28;20043;-59
2022/12/20 10:38:17;;;;;;;45.95;23.00;;;;;;;;;;5069773;28;20037;-59
2022/12/20 10:40:58;;;;;;;47.63;22.77;;;;;;;;;;5069659;28;20556;-59
2022/12/20 10:43:48;;;;;;;49.75;22.80;;;;;;;;;;5069393;28;20433;-59
2022/12/20 10:46:16;;;;;;;45.80;21.63;;;;;;;;;;5069406;28;20037;-59
2022/12/20 10:48:44;;;;;;;44.60;21.48;;;;;;;;;;5069462;28;20124;-59
2022/12/20 10:51:12;;;;;;;43.05;21.20;;;;;;;;;;5069641;28;20045;-59
2022/12/20 10:54:00;;;;;;;46.10;20.25;;;;;;;;;;5069876;28;20052;-59
2022/12/20 10:56:27;;;;;;;44.03;21.08;;;;;;;;;;5069518;28;20497;-59
2022/12/20 10:59:03;;;;;;;49.03;21.05;;;;;;;;;;5069402;28;20072;-59
2022/12/20 11:01:30;;;;;;;;;;;;;;;;;;5069819;28;20049;-59
2022/12/20 11:04:18;;;;;;;43.80;20.02;;;;;;;;;;5069418;28;20420;-59
2022/12/20 11:06:45;;;;;;;45.40;21.50;;;;;;;;;;5069214;28;20041;-59
2022/12/20 11:09:16;;;;;;;45.38;21.75;;;;;;;;;;5069461;28;20041;-59
2022/12/20 11:11:57;;;;;;;48.55;22.98;;;;;;;;;;5069210;28;20123;-59
2022/12/20 11:14:25;;;;;;;55.90;24.13;;;;;;;;;;5067850;28;20049;-59
2022/12/20 11:16:53;;;;;;;51.60;24.13;;;;;;;;;;5068994;28;20041;-59
2022/12/20 11:19:30;;;;;;;61.60;27.83;;;;;;;;;;5068859;28;20063;-59
2022/12/20 11:21:57;;;;;;;53.35;25.15;;;;;;;;;;5068819;28;20171;-59
2022/12/20 11:24:35;;;;;;;49.22;22.88;;;;;;;;;;5068898;28;20092;-59
2022/12/20 11:27:21;;;;;;;51.50;23.00;;;;;;;;;;5068871;28;20041;-59
2022/12/20 11:29:48;;;;;;;47.38;22.45;;;;;;;;;;5067205;28;20132;-59
2022/12/20 11:32:37;;;;;;;51.53;22.83;;;;;;;;;;5068722;28;20048;-58
2022/12/20 11:35:13;;;;;;;50.70;23.40;;;;;;;;;;5068923;28;20068;-59
2022/12/20 11:37:46;;;;;;;49.22;23.58;;;;;;;;;;5068529;28;20052;-59
2022/12/20 11:40:17;;;;;;;50.25;22.73;;;;;;;;;;5066132;28;20043;-59
2022/12/20 11:42:44;;;;;;;49.33;21.35;;;;;;;;;;5055267;28;20087;-59
2022/12/20 11:45:12;;;;;;;47.50;21.75;;;;;;;;;;5055290;28;20076;-59
2022/12/20 11:47:39;;;;;;;50.78;22.70;;;;;;;;;;5055132;28;20064;-59
2022/12/20 11:50:39;;;;;;;47.95;22.50;;;;;;;;;;5054925;28;20041;-59
2022/12/20 11:53:27;;;;;;;45.92;21.60;;;;;;;;;;5054938;28;20121;-59
2022/12/20 11:55:57;;;;;;;49.03;22.45;;;;;;;;;;5050947;28;20440;-59
2022/12/20 11:58:28;;;;;;;48.72;22.52;;;;;;;;;;5055195;28;20041;-59
2022/12/20 12:00:57;;;;;;;53.55;24.10;;;;;;;;;;5054928;28;20061;-59
2022/12/20 12:03:32;;;;;;;53.00;24.85;;;;;;;;;;5054927;28;20044;-59
2022/12/20 12:06:02;;;;;;;51.55;21.67;;;;;;;;;;5055043;28;20045;-59
2022/12/20 12:08:30;;;;;;;53.40;24.15;;;;;;;;;;5054806;28;20047;-59
2022/12/20 12:11:17;;;;;;;46.95;21.42;;;;;;;;;;5054843;28;20425;-59
2022/12/20 12:14:05;;;;;;;49.20;23.60;;;;;;;;;;5053850;28;20053;-59
2022/12/20 12:16:43;;;;;;;47.97;22.10;;;;;;;;;;5053471;28;20048;-59
2022/12/20 12:19:11;;;;;;;51.10;24.40;;;;;;;;;;5053639;28;20430;-59
2022/12/20 12:22:00;;;;;;;56.08;24.13;;;;;;;;;;5054475;28;20394;-59
2022/12/20 12:24:30;;;;;;;47.00;21.60;;;;;;;;;;5054439;28;20511;-59
2022/12/20 12:27:00;;;;;;;47.30;22.60;;;;;;;;;;5053753;28;20048;-60
2022/12/20 12:29:29;;;;;;;48.13;22.83;;;;;;;;;;5053942;28;20053;-60
2022/12/20 12:31:56;;;;;;;51.10;23.45;;;;;;;;;;5053766;28;20534;-61
2022/12/20 12:34:39;;;;;;;52.40;23.30;;;;;;;;;;5053997;28;20041;-60
2022/12/20 12:37:13;;;;;;;46.67;22.15;;;;;;;;;;5054083;28;20045;-60
2022/12/20 12:39:40;;;;;;;51.22;23.13;;;;;;;;;;5053176;28;20041;-60
2022/12/20 12:42:23;;;;;;;52.63;24.17;;;;;;;;;;5053747;28;20564;-59
2022/12/20 12:44:50;;;;;;;52.70;23.40;;;;;;;;;;5054146;28;20047;-59
2022/12/20 12:47:38;;;;;;;50.33;23.40;;;;;;;;;;5054216;28;20041;-60
2022/12/20 12:50:08;;;;;;;50.80;23.52;;;;;;;;;;5053942;28;20047;-60
2022/12/20 12:52:36;;;;;;;54.13;24.55;;;;;;;;;;5053058;28;20068;-60
2022/12/20 12:55:03;;;;;;;50.70;23.73;;;;;;;;;;5053865;28;20060;-60
2022/12/20 12:57:51;;;;;;;48.92;23.10;;;;;;;;;;5053812;28;20037;-60
2022/12/20 13:00:39;;;;;;;50.08;22.95;;;;;;;;;;5053794;28;20067;-60
2022/12/20 13:03:14;;;;;;;53.20;23.75;;;;;;;;;;5079065;28;20135;-60
2022/12/20 13:05:42;;;;;;;47.28;22.35;;;;;;;;;;5053784;28;20119;-60
2022/12/20 13:08:15;;;;;;;52.90;23.45;;;;;;;;;;5053697;28;20047;-60
2022/12/20 13:10:42;;;;;;;48.53;22.42;;;;;;;;;;5052183;28;20071;-61
2022/12/20 13:13:14;;;;;;;50.15;22.92;;;;;;;;;;5053545;28;20509;-60
2022/12/20 13:15:41;;;;;;;55.10;24.17;;;;;;;;;;5053474;28;20498;-61
2022/12/20 13:18:09;;;;;;;52.53;24.38;;;;;;;;;;5053516;28;20037;-60
2022/12/20 13:20:37;;;;;;;55.67;25.02;;;;;;;;;;5053268;28;20371;-58
2022/12/20 13:23:07;;;;;;;50.08;22.35;;;;;;;;;;5053400;28;20033;-59
2022/12/20 13:25:36;;;;;;;47.13;21.10;;;;;;;;;;5052114;28;20067;-60
2022/12/20 13:28:16;;;;;;;48.05;22.60;;;;;;;;;;5053193;28;20083;-60
2022/12/20 13:30:45;;;;;;;50.08;22.70;;;;;;;;;;5052944;28;20052;-60
2022/12/20 13:33:36;;;;;;;50.08;23.73;;;;;;;;;;5053089;28;20041;-59
2022/12/20 13:36:05;;;;;;;49.25;23.17;;;;;;;;;;5050131;28;20059;-59
2022/12/20 13:38:38;;;;;;;56.55;22.98;;;;;;;;;;5053028;28;20079;-59
2022/12/20 13:41:12;;;;;;;60.08;24.25;;;;;;;;;;5053109;28;20112;-59
2022/12/20 13:43:43;;;;;;;54.33;25.90;;;;;;;;;;5052979;28;20075;-60
2022/12/20 13:46:12;;;;;;;56.88;25.95;;;;;;;;;;5053020;28;20041;-59
2022/12/20 13:48:45;;;;;;;60.38;26.90;;;;;;;;;;5052997;28;20111;-59
2022/12/20 13:51:20;;;;;;;57.08;25.55;;;;;;;;;;5053155;28;20120;-59
2022/12/20 13:53:51;;;;;;;53.38;24.50;;;;;;;;;;5052917;28;20627;-59
2022/12/20 13:56:28;;;;;;;51.10;24.00;;;;;;;;;;5052897;28;20044;-59
2022/12/20 13:58:57;;;;;;;61.80;27.25;;;;;;;;;;5052697;28;20484;-60
2022/12/20 14:01:25;;;;;;;59.20;28.58;;;;;;;;;;5052728;28;20075;-60
2022/12/20 14:03:53;;;;;;;55.15;25.02;;;;;;;;;;5052363;28;20049;-60
2022/12/20 14:06:22;;;;;;;53.40;25.42;;;;;;;;;;5052752;28;20025;-59
2022/12/20 14:08:53;;;;;;;56.72;24.85;;;;;;;;;;5051519;28;20045;-59
2022/12/20 14:11:23;;;;;;;60.83;27.65;;;;;;;;;;5052432;28;20045;-60
2022/12/20 14:13:51;;;;;;;64.32;28.70;;;;;;;;;;5052585;28;20059;-60
2022/12/20 14:16:19;;;;;;;63.20;27.75;;;;;;;;;;5052549;28;20079;-59
2022/12/20 14:19:06;;;;;;;63.05;26.63;;;;;;;;;;5052562;28;20068;-59
2022/12/20 14:21:39;;;;;;;58.80;26.63;;;;;;;;;;5052670;28;20442;-59
2022/12/20 14:24:11;;;;;;;61.80;28.02;;;;;;;;;;5052340;28;20040;-59
2022/12/20 14:26:43;;;;;;;72.97;29.70;;;;;;;;;;5052309;28;20043;-59
2022/12/20 14:29:11;;;;;;;68.45;28.92;;;;;;;;;;5052495;28;20136;-59
2022/12/20 14:31:43;;;;;;;57.70;26.50;;;;;;;;;;5052165;28;20049;-59
2022/12/20 14:34:11;;;;;;;69.15;26.05;;;;;;;;;;5052311;28;20467;-60
2022/12/20 14:36:46;;;;;;;63.50;26.35;;;;;;;;;;5052370;28;20039;-60
2022/12/20 14:39:25;;;;;;;63.00;26.48;;;;;;;;;;5052219;28;20037;-60
2022/12/20 14:41:57;;;;;;;73.25;26.80;;;;;;;;;;5052460;28;20483;-60
2022/12/20 14:44:26;;;;;;;62.63;27.23;;;;;;;;;;5052260;28;20053;-59
2022/12/20 14:46:53;;;;;;;59.70;26.85;;;;;;;;;;5052254;28;20095;-60
2022/12/20 14:49:37;;;;;;;62.65;24.92;;;;;;;;;;5052235;28;20083;-60